sensor_id;sensor_type;location;lat;lon;timestamp;P1;durP1;ratioP1;P2;durP2;ratioP2
4122;SDS011;2075;51.062;6.920;2022-09-20T00:02:28;7.40;;;2.40;;
4122;SDS011;2075;51.062;6.920;2022-09-20T00:05:13;6.87;;;2.80;;
4122;SDS011;2075;51.062;6.920;2022-09-20T00:07:58;3.23;;;1.90;;
4122;SDS011;2075;51.062;6.920;2022-09-20T00:10:43;2.40;;;1.97;;
4122;SDS011;2075;51.062;6.920;2022-09-20T00:13:29;11.27;;;2.80;;
4122;SDS011;2075;51.062;6.920;2022-09-20T00:16:15;8.67;;;2.50;;
4122;SDS011;2075;51.062;6.920;2022-09-20T00:19:02;4.37;;;3.10;;
4122;SDS011;2075;51.062;6.920;2022-09-20T00:21:47;8.27;;;2.30;;
4122;SDS011;2075;51.062;6.920;2022-09-20T00:24:32;9.50;;;3.77;;
4122;SDS011;2075;51.062;6.920;2022-09-20T00:27:19;7.73;;;2.70;;
4122;SDS011;2075;51.062;6.920;2022-09-20T00:30:04;7.00;;;3.23;;
4122;SDS011;2075;51.062;6.920;2022-09-20T00:32:50;15.70;;;3.03;;
4122;SDS011;2075;51.062;6.920;2022-09-20T00:35:36;7.20;;;2.80;;
4122;SDS011;2075;51.062;6.920;2022-09-20T00:38:20;7.80;;;2.60;;
4122;SDS011;2075;51.062;6.920;2022-09-20T00:41:05;8.67;;;3.37;;
4122;SDS011;2075;51.062;6.920;2022-09-20T00:43:51;8.70;;;2.67;;
4122;SDS011;2075;51.062;6.920;2022-09-20T00:46:37;8.57;;;2.87;;
4122;SDS011;2075;51.062;6.920;2022-09-20T00:49:24;6.60;;;2.90;;
4122;SDS011;2075;51.062;6.920;2022-09-20T00:52:12;5.90;;;2.50;;
4122;SDS011;2075;51.062;6.920;2022-09-20T00:54:57;5.27;;;2.63;;
4122;SDS011;2075;51.062;6.920;2022-09-20T00:57:42;10.53;;;3.13;;
4122;SDS011;2075;51.062;6.920;2022-09-20T01:00:28;5.60;;;2.80;;
4122;SDS011;2075;51.062;6.920;2022-09-20T01:03:14;7.70;;;2.77;;
4122;SDS011;2075;51.062;6.920;2022-09-20T01:06:03;6.90;;;2.67;;
4122;SDS011;2075;51.062;6.920;2022-09-20T01:08:52;6.83;;;3.23;;
4122;SDS011;2075;51.062;6.920;2022-09-20T01:11:38;10.40;;;2.93;;
4122;SDS011;2075;51.062;6.920;2022-09-20T01:14:24;7.37;;;3.33;;
4122;SDS011;2075;51.062;6.920;2022-09-20T01:17:10;11.47;;;3.67;;
4122;SDS011;2075;51.062;6.920;2022-09-20T01:19:59;6.33;;;2.93;;
4122;SDS011;2075;51.062;6.920;2022-09-20T01:23:01;9.53;;;3.00;;
4122;SDS011;2075;51.062;6.920;2022-09-20T01:25:57;10.47;;;3.17;;
4122;SDS011;2075;51.062;6.920;2022-09-20T01:28:51;14.33;;;3.07;;
4122;SDS011;2075;51.062;6.920;2022-09-20T01:31:39;7.10;;;3.20;;
4122;SDS011;2075;51.062;6.920;2022-09-20T01:34:28;7.23;;;3.00;;
4122;SDS011;2075;51.062;6.920;2022-09-20T01:37:15;7.83;;;3.23;;
4122;SDS011;2075;51.062;6.920;2022-09-20T01:40:05;8.93;;;3.37;;
4122;SDS011;2075;51.062;6.920;2022-09-20T01:42:55;6.30;;;3.00;;
4122;SDS011;2075;51.062;6.920;2022-09-20T01:45:45;12.77;;;3.30;;
4122;SDS011;2075;51.062;6.920;2022-09-20T01:48:32;10.70;;;2.47;;
4122;SDS011;2075;51.062;6.920;2022-09-20T01:51:27;5.67;;;3.27;;
4122;SDS011;2075;51.062;6.920;2022-09-20T01:57:29;9.70;;;3.80;;
4122;SDS011;2075;51.062;6.920;2022-09-20T02:00:19;9.43;;;2.93;;
4122;SDS011;2075;51.062;6.920;2022-09-20T02:06:16;11.57;;;3.10;;
4122;SDS011;2075;51.062;6.920;2022-09-20T02:12:22;7.50;;;3.07;;
4122;SDS011;2075;51.062;6.920;2022-09-20T02:15:15;6.83;;;3.10;;
4122;SDS011;2075;51.062;6.920;2022-09-20T02:18:08;12.03;;;3.80;;
4122;SDS011;2075;51.062;6.920;2022-09-20T02:20:55;6.03;;;3.90;;
4122;SDS011;2075;51.062;6.920;2022-09-20T02:23:45;6.20;;;2.80;;
4122;SDS011;2075;51.062;6.920;2022-09-20T02:26:35;3.97;;;2.70;;
4122;SDS011;2075;51.062;6.920;2022-09-20T02:29:25;21.37;;;4.23;;
4122;SDS011;2075;51.062;6.920;2022-09-20T02:32:21;10.73;;;2.90;;
4122;SDS011;2075;51.062;6.920;2022-09-20T02:35:14;8.17;;;2.93;;
4122;SDS011;2075;51.062;6.920;2022-09-20T02:38:09;10.27;;;3.70;;
4122;SDS011;2075;51.062;6.920;2022-09-20T02:44:11;10.03;;;3.37;;
4122;SDS011;2075;51.062;6.920;2022-09-20T02:47:01;6.17;;;2.50;;
4122;SDS011;2075;51.062;6.920;2022-09-20T02:49:52;6.03;;;2.30;;
4122;SDS011;2075;51.062;6.920;2022-09-20T02:52:41;6.23;;;2.87;;
4122;SDS011;2075;51.062;6.920;2022-09-20T02:55:31;7.40;;;2.67;;
4122;SDS011;2075;51.062;6.920;2022-09-20T02:58:24;10.23;;;3.70;;
4122;SDS011;2075;51.062;6.920;2022-09-20T03:01:16;5.27;;;3.00;;
4122;SDS011;2075;51.062;6.920;2022-09-20T03:04:09;10.20;;;2.50;;
4122;SDS011;2075;51.062;6.920;2022-09-20T03:06:56;9.30;;;2.60;;
4122;SDS011;2075;51.062;6.920;2022-09-20T03:09:46;6.90;;;2.60;;
4122;SDS011;2075;51.062;6.920;2022-09-20T03:12:37;14.23;;;3.13;;
4122;SDS011;2075;51.062;6.920;2022-09-20T03:15:29;7.57;;;2.80;;
4122;SDS011;2075;51.062;6.920;2022-09-20T03:18:17;7.07;;;2.60;;
4122;SDS011;2075;51.062;6.920;2022-09-20T03:21:06;7.43;;;2.70;;
4122;SDS011;2075;51.062;6.920;2022-09-20T03:23:56;13.23;;;2.90;;
4122;SDS011;2075;51.062;6.920;2022-09-20T03:26:46;4.17;;;2.67;;
4122;SDS011;2075;51.062;6.920;2022-09-20T03:29:39;8.10;;;2.40;;
4122;SDS011;2075;51.062;6.920;2022-09-20T03:32:30;18.63;;;3.87;;
4122;SDS011;2075;51.062;6.920;2022-09-20T03:35:25;8.67;;;2.57;;
4122;SDS011;2075;51.062;6.920;2022-09-20T03:38:17;4.87;;;3.00;;
4122;SDS011;2075;51.062;6.920;2022-09-20T03:41:10;8.57;;;3.10;;
4122;SDS011;2075;51.062;6.920;2022-09-20T03:44:04;17.20;;;3.93;;
4122;SDS011;2075;51.062;6.920;2022-09-20T03:46:55;5.53;;;2.90;;
4122;SDS011;2075;51.062;6.920;2022-09-20T03:49:51;8.90;;;2.97;;
4122;SDS011;2075;51.062;6.920;2022-09-20T03:52:59;11.30;;;3.00;;
4122;SDS011;2075;51.062;6.920;2022-09-20T03:55:55;11.40;;;3.50;;
4122;SDS011;2075;51.062;6.920;2022-09-20T03:58:44;5.20;;;2.87;;
4122;SDS011;2075;51.062;6.920;2022-09-20T04:01:37;10.63;;;4.57;;
4122;SDS011;2075;51.062;6.920;2022-09-20T04:04:27;8.20;;;3.60;;
4122;SDS011;2075;51.062;6.920;2022-09-20T04:07:16;6.70;;;3.50;;
4122;SDS011;2075;51.062;6.920;2022-09-20T04:10:09;4.37;;;3.00;;
4122;SDS011;2075;51.062;6.920;2022-09-20T04:12:58;13.90;;;3.30;;
4122;SDS011;2075;51.062;6.920;2022-09-20T04:15:52;11.07;;;3.13;;
4122;SDS011;2075;51.062;6.920;2022-09-20T04:18:42;4.57;;;2.90;;
4122;SDS011;2075;51.062;6.920;2022-09-20T04:21:29;10.83;;;3.23;;
4122;SDS011;2075;51.062;6.920;2022-09-20T04:24:17;14.53;;;2.80;;
4122;SDS011;2075;51.062;6.920;2022-09-20T04:27:09;10.50;;;3.00;;
4122;SDS011;2075;51.062;6.920;2022-09-20T04:29:57;12.60;;;3.00;;
4122;SDS011;2075;51.062;6.920;2022-09-20T04:32:45;7.13;;;2.90;;
4122;SDS011;2075;51.062;6.920;2022-09-20T04:35:34;9.90;;;2.83;;
4122;SDS011;2075;51.062;6.920;2022-09-20T04:38:38;13.50;;;2.97;;
4122;SDS011;2075;51.062;6.920;2022-09-20T04:44:41;9.30;;;2.87;;
4122;SDS011;2075;51.062;6.920;2022-09-20T04:47:38;8.67;;;3.17;;
4122;SDS011;2075;51.062;6.920;2022-09-20T04:53:42;12.40;;;3.20;;
4122;SDS011;2075;51.062;6.920;2022-09-20T04:56:34;6.40;;;3.00;;
4122;SDS011;2075;51.062;6.920;2022-09-20T04:59:26;15.93;;;3.87;;
4122;SDS011;2075;51.062;6.920;2022-09-20T05:02:36;14.43;;;3.93;;
4122;SDS011;2075;51.062;6.920;2022-09-20T05:05:32;13.97;;;3.70;;
4122;SDS011;2075;51.062;6.920;2022-09-20T05:11:31;9.10;;;3.70;;
4122;SDS011;2075;51.062;6.920;2022-09-20T05:14:29;16.03;;;3.43;;
4122;SDS011;2075;51.062;6.920;2022-09-20T05:17:29;16.27;;;4.20;;
4122;SDS011;2075;51.062;6.920;2022-09-20T05:20:30;10.40;;;3.70;;
4122;SDS011;2075;51.062;6.920;2022-09-20T05:26:31;10.30;;;4.03;;
4122;SDS011;2075;51.062;6.920;2022-09-20T05:29:23;17.30;;;5.60;;
4122;SDS011;2075;51.062;6.920;2022-09-20T05:32:11;13.77;;;3.83;;
4122;SDS011;2075;51.062;6.920;2022-09-20T05:35:03;9.80;;;4.47;;
4122;SDS011;2075;51.062;6.920;2022-09-20T05:37:53;12.20;;;5.00;;
4122;SDS011;2075;51.062;6.920;2022-09-20T05:40:47;12.63;;;5.27;;
4122;SDS011;2075;51.062;6.920;2022-09-20T05:43:37;18.57;;;6.30;;
4122;SDS011;2075;51.062;6.920;2022-09-20T05:46:34;12.40;;;4.97;;
4122;SDS011;2075;51.062;6.920;2022-09-20T05:49:23;15.87;;;5.00;;
4122;SDS011;2075;51.062;6.920;2022-09-20T05:52:18;8.47;;;5.10;;
4122;SDS011;2075;51.062;6.920;2022-09-20T06:01:24;7.43;;;3.90;;
4122;SDS011;2075;51.062;6.920;2022-09-20T06:04:11;10.17;;;4.67;;
4122;SDS011;2075;51.062;6.920;2022-09-20T06:07:02;13.37;;;4.60;;
4122;SDS011;2075;51.062;6.920;2022-09-20T06:09:56;11.97;;;5.10;;
4122;SDS011;2075;51.062;6.920;2022-09-20T06:12:46;10.97;;;4.93;;
4122;SDS011;2075;51.062;6.920;2022-09-20T06:15:36;11.53;;;4.87;;
4122;SDS011;2075;51.062;6.920;2022-09-20T06:18:30;9.80;;;5.10;;
4122;SDS011;2075;51.062;6.920;2022-09-20T06:21:21;11.47;;;5.47;;
4122;SDS011;2075;51.062;6.920;2022-09-20T06:24:16;8.63;;;4.50;;
4122;SDS011;2075;51.062;6.920;2022-09-20T06:27:05;9.87;;;5.63;;
4122;SDS011;2075;51.062;6.920;2022-09-20T06:29:54;9.67;;;4.97;;
4122;SDS011;2075;51.062;6.920;2022-09-20T06:32:51;16.30;;;4.43;;
4122;SDS011;2075;51.062;6.920;2022-09-20T06:35:39;11.20;;;5.20;;
4122;SDS011;2075;51.062;6.920;2022-09-20T06:38:30;9.83;;;4.93;;
4122;SDS011;2075;51.062;6.920;2022-09-20T06:41:34;10.47;;;4.40;;
4122;SDS011;2075;51.062;6.920;2022-09-20T06:44:22;11.17;;;5.20;;
4122;SDS011;2075;51.062;6.920;2022-09-20T06:47:08;24.90;;;5.30;;
4122;SDS011;2075;51.062;6.920;2022-09-20T06:49:52;12.47;;;5.20;;
4122;SDS011;2075;51.062;6.920;2022-09-20T06:52:40;12.10;;;5.37;;
4122;SDS011;2075;51.062;6.920;2022-09-20T06:55:26;9.97;;;5.73;;
4122;SDS011;2075;51.062;6.920;2022-09-20T06:58:12;12.40;;;4.80;;
4122;SDS011;2075;51.062;6.920;2022-09-20T07:00:58;14.13;;;5.27;;
4122;SDS011;2075;51.062;6.920;2022-09-20T07:03:43;8.13;;;5.17;;
4122;SDS011;2075;51.062;6.920;2022-09-20T07:06:28;8.40;;;5.17;;
4122;SDS011;2075;51.062;6.920;2022-09-20T07:09:15;8.00;;;5.07;;
4122;SDS011;2075;51.062;6.920;2022-09-20T07:12:00;11.53;;;5.70;;
4122;SDS011;2075;51.062;6.920;2022-09-20T07:14:46;6.63;;;4.37;;
4122;SDS011;2075;51.062;6.920;2022-09-20T07:17:33;6.43;;;4.37;;
4122;SDS011;2075;51.062;6.920;2022-09-20T07:20:18;9.60;;;4.70;;
4122;SDS011;2075;51.062;6.920;2022-09-20T07:23:03;8.13;;;4.57;;
4122;SDS011;2075;51.062;6.920;2022-09-20T07:25:50;11.17;;;4.20;;
4122;SDS011;2075;51.062;6.920;2022-09-20T07:28:35;7.83;;;4.73;;
4122;SDS011;2075;51.062;6.920;2022-09-20T07:31:20;8.37;;;4.47;;
4122;SDS011;2075;51.062;6.920;2022-09-20T07:34:06;5.60;;;4.00;;
4122;SDS011;2075;51.062;6.920;2022-09-20T07:36:51;8.63;;;4.73;;
4122;SDS011;2075;51.062;6.920;2022-09-20T07:39:36;5.70;;;4.00;;
4122;SDS011;2075;51.062;6.920;2022-09-20T07:42:23;6.00;;;3.60;;
4122;SDS011;2075;51.062;6.920;2022-09-20T07:45:08;7.43;;;3.87;;
4122;SDS011;2075;51.062;6.920;2022-09-20T07:47:55;15.70;;;4.53;;
4122;SDS011;2075;51.062;6.920;2022-09-20T07:50:48;16.57;;;5.13;;
4122;SDS011;2075;51.062;6.920;2022-09-20T07:53:34;9.70;;;5.77;;
4122;SDS011;2075;51.062;6.920;2022-09-20T07:56:19;9.33;;;4.53;;
4122;SDS011;2075;51.062;6.920;2022-09-20T07:59:05;9.23;;;4.43;;
4122;SDS011;2075;51.062;6.920;2022-09-20T08:01:50;8.40;;;4.07;;
4122;SDS011;2075;51.062;6.920;2022-09-20T08:04:35;6.97;;;3.87;;
4122;SDS011;2075;51.062;6.920;2022-09-20T08:07:20;6.00;;;3.83;;
4122;SDS011;2075;51.062;6.920;2022-09-20T08:10:06;7.80;;;4.10;;
4122;SDS011;2075;51.062;6.920;2022-09-20T08:12:51;14.60;;;4.53;;
4122;SDS011;2075;51.062;6.920;2022-09-20T08:15:38;9.70;;;4.17;;
4122;SDS011;2075;51.062;6.920;2022-09-20T08:18:23;6.83;;;3.77;;
4122;SDS011;2075;51.062;6.920;2022-09-20T08:21:11;7.53;;;3.47;;
4122;SDS011;2075;51.062;6.920;2022-09-20T08:23:56;11.63;;;3.70;;
4122;SDS011;2075;51.062;6.920;2022-09-20T08:26:42;9.50;;;4.30;;
4122;SDS011;2075;51.062;6.920;2022-09-20T08:29:27;10.83;;;3.80;;
4122;SDS011;2075;51.062;6.920;2022-09-20T08:32:13;4.53;;;3.20;;
4122;SDS011;2075;51.062;6.920;2022-09-20T08:34:59;16.03;;;4.27;;
4122;SDS011;2075;51.062;6.920;2022-09-20T08:37:44;5.70;;;3.77;;
4122;SDS011;2075;51.062;6.920;2022-09-20T08:40:30;9.80;;;3.73;;
4122;SDS011;2075;51.062;6.920;2022-09-20T08:43:15;14.83;;;3.53;;
4122;SDS011;2075;51.062;6.920;2022-09-20T08:46:01;6.70;;;3.10;;
4122;SDS011;2075;51.062;6.920;2022-09-20T08:48:48;5.00;;;2.87;;
4122;SDS011;2075;51.062;6.920;2022-09-20T08:51:36;9.50;;;3.47;;
4122;SDS011;2075;51.062;6.920;2022-09-20T08:54:23;9.13;;;3.50;;
4122;SDS011;2075;51.062;6.920;2022-09-20T08:57:09;6.13;;;3.93;;
4122;SDS011;2075;51.062;6.920;2022-09-20T08:59:55;7.33;;;3.57;;
4122;SDS011;2075;51.062;6.920;2022-09-20T09:02:41;9.73;;;3.10;;
4122;SDS011;2075;51.062;6.920;2022-09-20T09:05:30;7.97;;;3.20;;
4122;SDS011;2075;51.062;6.920;2022-09-20T09:08:16;6.93;;;2.73;;
4122;SDS011;2075;51.062;6.920;2022-09-20T09:11:03;12.83;;;2.80;;
4122;SDS011;2075;51.062;6.920;2022-09-20T09:13:52;7.80;;;2.70;;
4122;SDS011;2075;51.062;6.920;2022-09-20T09:16:38;5.40;;;2.43;;
4122;SDS011;2075;51.062;6.920;2022-09-20T09:19:27;5.13;;;2.27;;
4122;SDS011;2075;51.062;6.920;2022-09-20T09:22:21;9.00;;;2.47;;
4122;SDS011;2075;51.062;6.920;2022-09-20T09:25:09;5.30;;;2.03;;
4122;SDS011;2075;51.062;6.920;2022-09-20T09:28:01;6.60;;;2.53;;
4122;SDS011;2075;51.062;6.920;2022-09-20T09:30:48;6.60;;;2.40;;
4122;SDS011;2075;51.062;6.920;2022-09-20T09:33:33;10.10;;;2.57;;
4122;SDS011;2075;51.062;6.920;2022-09-20T09:36:20;12.97;;;2.40;;
4122;SDS011;2075;51.062;6.920;2022-09-20T09:39:16;8.30;;;2.90;;
4122;SDS011;2075;51.062;6.920;2022-09-20T09:42:17;7.30;;;2.60;;
4122;SDS011;2075;51.062;6.920;2022-09-20T09:45:10;8.47;;;2.30;;
4122;SDS011;2075;51.062;6.920;2022-09-20T09:47:56;15.57;;;3.23;;
4122;SDS011;2075;51.062;6.920;2022-09-20T09:50:42;9.10;;;2.83;;
4122;SDS011;2075;51.062;6.920;2022-09-20T09:53:26;8.53;;;2.73;;
4122;SDS011;2075;51.062;6.920;2022-09-20T09:56:19;2.60;;;2.17;;
4122;SDS011;2075;51.062;6.920;2022-09-20T09:59:12;5.03;;;2.00;;
4122;SDS011;2075;51.062;6.920;2022-09-20T10:02:00;18.53;;;2.53;;
4122;SDS011;2075;51.062;6.920;2022-09-20T10:04:49;4.20;;;1.90;;
4122;SDS011;2075;51.062;6.920;2022-09-20T10:07:37;3.60;;;1.90;;
4122;SDS011;2075;51.062;6.920;2022-09-20T10:10:25;9.43;;;1.97;;
4122;SDS011;2075;51.062;6.920;2022-09-20T10:13:14;8.53;;;2.27;;
4122;SDS011;2075;51.062;6.920;2022-09-20T10:16:04;6.73;;;1.73;;
4122;SDS011;2075;51.062;6.920;2022-09-20T10:18:53;4.47;;;1.80;;
4122;SDS011;2075;51.062;6.920;2022-09-20T10:21:45;1.97;;;1.70;;
4122;SDS011;2075;51.062;6.920;2022-09-20T10:24:38;11.53;;;2.00;;
4122;SDS011;2075;51.062;6.920;2022-09-20T10:27:34;10.53;;;2.23;;
4122;SDS011;2075;51.062;6.920;2022-09-20T10:30:24;9.67;;;4.77;;
4122;SDS011;2075;51.062;6.920;2022-09-20T10:33:17;6.30;;;2.57;;
4122;SDS011;2075;51.062;6.920;2022-09-20T10:36:11;9.10;;;1.67;;
4122;SDS011;2075;51.062;6.920;2022-09-20T10:38:59;6.13;;;1.50;;
4122;SDS011;2075;51.062;6.920;2022-09-20T10:41:49;6.00;;;3.53;;
4122;SDS011;2075;51.062;6.920;2022-09-20T10:44:56;4.10;;;1.80;;
4122;SDS011;2075;51.062;6.920;2022-09-20T10:47:49;2.87;;;1.40;;
4122;SDS011;2075;51.062;6.920;2022-09-20T10:50:36;13.67;;;2.00;;
4122;SDS011;2075;51.062;6.920;2022-09-20T10:53:24;3.57;;;2.23;;
4122;SDS011;2075;51.062;6.920;2022-09-20T10:56:15;3.67;;;1.43;;
4122;SDS011;2075;51.062;6.920;2022-09-20T10:59:10;8.80;;;1.67;;
4122;SDS011;2075;51.062;6.920;2022-09-20T11:02:04;6.23;;;1.60;;
4122;SDS011;2075;51.062;6.920;2022-09-20T11:05:02;13.47;;;1.73;;
4122;SDS011;2075;51.062;6.920;2022-09-20T11:07:57;6.40;;;1.60;;
4122;SDS011;2075;51.062;6.920;2022-09-20T11:10:45;5.03;;;1.70;;
4122;SDS011;2075;51.062;6.920;2022-09-20T11:13:33;3.90;;;1.67;;
4122;SDS011;2075;51.062;6.920;2022-09-20T11:16:21;4.33;;;1.83;;
4122;SDS011;2075;51.062;6.920;2022-09-20T11:19:12;6.37;;;2.20;;
4122;SDS011;2075;51.062;6.920;2022-09-20T11:22:01;12.37;;;1.67;;
4122;SDS011;2075;51.062;6.920;2022-09-20T11:24:50;4.90;;;2.00;;
4122;SDS011;2075;51.062;6.920;2022-09-20T11:27:40;6.63;;;1.70;;
4122;SDS011;2075;51.062;6.920;2022-09-20T11:30:28;4.10;;;1.97;;
4122;SDS011;2075;51.062;6.920;2022-09-20T11:33:16;7.30;;;2.00;;
4122;SDS011;2075;51.062;6.920;2022-09-20T11:36:03;5.07;;;1.67;;
4122;SDS011;2075;51.062;6.920;2022-09-20T11:38:52;6.10;;;1.80;;
4122;SDS011;2075;51.062;6.920;2022-09-20T11:41:38;1.67;;;1.20;;
4122;SDS011;2075;51.062;6.920;2022-09-20T11:44:23;2.00;;;1.23;;
4122;SDS011;2075;51.062;6.920;2022-09-20T11:47:11;4.20;;;1.67;;
4122;SDS011;2075;51.062;6.920;2022-09-20T11:50:04;2.13;;;1.97;;
4122;SDS011;2075;51.062;6.920;2022-09-20T11:52:55;1.77;;;1.10;;
4122;SDS011;2075;51.062;6.920;2022-09-20T11:55:46;7.97;;;1.60;;
4122;SDS011;2075;51.062;6.920;2022-09-20T11:58:39;2.03;;;1.40;;
4122;SDS011;2075;51.062;6.920;2022-09-20T12:01:33;3.23;;;1.50;;
4122;SDS011;2075;51.062;6.920;2022-09-20T12:04:19;4.70;;;1.20;;
4122;SDS011;2075;51.062;6.920;2022-09-20T12:07:07;1.90;;;1.00;;
4122;SDS011;2075;51.062;6.920;2022-09-20T12:10:00;1.17;;;1.07;;
4122;SDS011;2075;51.062;6.920;2022-09-20T12:12:48;4.53;;;1.10;;
4122;SDS011;2075;51.062;6.920;2022-09-20T12:15:35;0.90;;;0.90;;
4122;SDS011;2075;51.062;6.920;2022-09-20T12:21:24;2.97;;;1.10;;
4122;SDS011;2075;51.062;6.920;2022-09-20T12:24:18;1.80;;;1.50;;
4122;SDS011;2075;51.062;6.920;2022-09-20T12:27:18;3.30;;;1.47;;
4122;SDS011;2075;51.062;6.920;2022-09-20T12:30:14;1.93;;;1.20;;
4122;SDS011;2075;51.062;6.920;2022-09-20T12:33:00;2.57;;;1.03;;
4122;SDS011;2075;51.062;6.920;2022-09-20T12:38:47;3.97;;;1.50;;
4122;SDS011;2075;51.062;6.920;2022-09-20T12:41:45;1.33;;;1.23;;
4122;SDS011;2075;51.062;6.920;2022-09-20T12:44:31;1.40;;;1.30;;
4122;SDS011;2075;51.062;6.920;2022-09-20T12:47:20;4.30;;;1.30;;
4122;SDS011;2075;51.062;6.920;2022-09-20T12:50:11;1.83;;;1.33;;
4122;SDS011;2075;51.062;6.920;2022-09-20T12:53:14;3.10;;;1.30;;
4122;SDS011;2075;51.062;6.920;2022-09-20T12:56:03;0.90;;;0.90;;
4122;SDS011;2075;51.062;6.920;2022-09-20T12:58:50;2.93;;;1.10;;
4122;SDS011;2075;51.062;6.920;2022-09-20T13:01:37;4.30;;;1.23;;
4122;SDS011;2075;51.062;6.920;2022-09-20T13:07:33;5.77;;;1.30;;
4122;SDS011;2075;51.062;6.920;2022-09-20T13:13:26;3.33;;;1.20;;
4122;SDS011;2075;51.062;6.920;2022-09-20T13:16:15;1.47;;;1.20;;
4122;SDS011;2075;51.062;6.920;2022-09-20T13:19:03;4.87;;;1.50;;
4122;SDS011;2075;51.062;6.920;2022-09-20T13:21:52;2.33;;;1.10;;
4122;SDS011;2075;51.062;6.920;2022-09-20T13:24:39;4.93;;;1.50;;
4122;SDS011;2075;51.062;6.920;2022-09-20T13:27:26;3.20;;;1.80;;
4122;SDS011;2075;51.062;6.920;2022-09-20T13:30:16;2.13;;;1.33;;
4122;SDS011;2075;51.062;6.920;2022-09-20T13:33:13;2.80;;;1.73;;
4122;SDS011;2075;51.062;6.920;2022-09-20T13:35:58;3.73;;;1.80;;
4122;SDS011;2075;51.062;6.920;2022-09-20T13:38:44;4.30;;;1.50;;
4122;SDS011;2075;51.062;6.920;2022-09-20T13:41:33;3.10;;;1.27;;
4122;SDS011;2075;51.062;6.920;2022-09-20T13:44:19;1.33;;;1.23;;
4122;SDS011;2075;51.062;6.920;2022-09-20T13:47:21;3.50;;;1.30;;
4122;SDS011;2075;51.062;6.920;2022-09-20T13:50:11;3.93;;;1.70;;
4122;SDS011;2075;51.062;6.920;2022-09-20T13:53:00;3.40;;;1.40;;
4122;SDS011;2075;51.062;6.920;2022-09-20T13:55:45;5.40;;;1.67;;
4122;SDS011;2075;51.062;6.920;2022-09-20T13:58:32;1.80;;;1.30;;
4122;SDS011;2075;51.062;6.920;2022-09-20T14:01:21;3.40;;;1.67;;
4122;SDS011;2075;51.062;6.920;2022-09-20T14:04:07;3.40;;;1.60;;
4122;SDS011;2075;51.062;6.920;2022-09-20T14:06:57;6.80;;;1.97;;
4122;SDS011;2075;51.062;6.920;2022-09-20T14:09:43;7.63;;;2.37;;
4122;SDS011;2075;51.062;6.920;2022-09-20T14:12:28;4.07;;;1.57;;
4122;SDS011;2075;51.062;6.920;2022-09-20T14:15:15;4.60;;;1.80;;
4122;SDS011;2075;51.062;6.920;2022-09-20T14:18:01;3.80;;;1.27;;
4122;SDS011;2075;51.062;6.920;2022-09-20T14:20:49;2.67;;;1.60;;
4122;SDS011;2075;51.062;6.920;2022-09-20T14:23:47;2.10;;;1.90;;
4122;SDS011;2075;51.062;6.920;2022-09-20T14:26:33;3.10;;;1.47;;
4122;SDS011;2075;51.062;6.920;2022-09-20T14:29:28;5.40;;;1.53;;
4122;SDS011;2075;51.062;6.920;2022-09-20T14:32:24;1.83;;;1.43;;
4122;SDS011;2075;51.062;6.920;2022-09-20T14:35:15;3.90;;;1.50;;
4122;SDS011;2075;51.062;6.920;2022-09-20T14:38:01;6.93;;;1.63;;
4122;SDS011;2075;51.062;6.920;2022-09-20T14:40:50;2.77;;;1.40;;
4122;SDS011;2075;51.062;6.920;2022-09-20T14:43:36;3.47;;;1.53;;
4122;SDS011;2075;51.062;6.920;2022-09-20T14:46:26;3.90;;;1.70;;
4122;SDS011;2075;51.062;6.920;2022-09-20T14:49:28;3.83;;;1.63;;
4122;SDS011;2075;51.062;6.920;2022-09-20T14:52:25;6.30;;;2.27;;
4122;SDS011;2075;51.062;6.920;2022-09-20T14:55:18;2.30;;;1.57;;
4122;SDS011;2075;51.062;6.920;2022-09-20T14:58:08;4.57;;;1.50;;
4122;SDS011;2075;51.062;6.920;2022-09-20T15:00:53;3.37;;;1.50;;
4122;SDS011;2075;51.062;6.920;2022-09-20T15:03:41;1.93;;;1.60;;
4122;SDS011;2075;51.062;6.920;2022-09-20T15:06:27;3.20;;;1.60;;
4122;SDS011;2075;51.062;6.920;2022-09-20T15:09:13;3.30;;;1.60;;
4122;SDS011;2075;51.062;6.920;2022-09-20T15:11:59;3.80;;;1.50;;
4122;SDS011;2075;51.062;6.920;2022-09-20T15:14:45;3.57;;;1.30;;
4122;SDS011;2075;51.062;6.920;2022-09-20T15:17:31;2.37;;;1.60;;
4122;SDS011;2075;51.062;6.920;2022-09-20T15:20:17;6.30;;;1.47;;
4122;SDS011;2075;51.062;6.920;2022-09-20T15:23:05;5.20;;;1.83;;
4122;SDS011;2075;51.062;6.920;2022-09-20T15:25:52;2.30;;;0.90;;
4122;SDS011;2075;51.062;6.920;2022-09-20T15:28:37;3.93;;;1.27;;
4122;SDS011;2075;51.062;6.920;2022-09-20T15:31:23;5.60;;;1.20;;
4122;SDS011;2075;51.062;6.920;2022-09-20T15:34:08;2.17;;;1.23;;
4122;SDS011;2075;51.062;6.920;2022-09-20T15:36:55;1.37;;;1.27;;
4122;SDS011;2075;51.062;6.920;2022-09-20T15:39:42;3.60;;;1.10;;
4122;SDS011;2075;51.062;6.920;2022-09-20T15:42:27;6.23;;;1.30;;
4122;SDS011;2075;51.062;6.920;2022-09-20T15:45:13;1.83;;;1.40;;
4122;SDS011;2075;51.062;6.920;2022-09-20T15:47:58;1.20;;;1.10;;
4122;SDS011;2075;51.062;6.920;2022-09-20T15:50:44;2.17;;;1.40;;
4122;SDS011;2075;51.062;6.920;2022-09-20T15:53:30;1.27;;;0.90;;
4122;SDS011;2075;51.062;6.920;2022-09-20T15:56:19;5.50;;;1.50;;
4122;SDS011;2075;51.062;6.920;2022-09-20T15:59:05;11.30;;;1.40;;
4122;SDS011;2075;51.062;6.920;2022-09-20T16:01:51;2.97;;;1.37;;
4122;SDS011;2075;51.062;6.920;2022-09-20T16:04:36;7.70;;;1.60;;
4122;SDS011;2075;51.062;6.920;2022-09-20T16:07:21;3.40;;;1.10;;
4122;SDS011;2075;51.062;6.920;2022-09-20T16:10:09;2.17;;;1.20;;
4122;SDS011;2075;51.062;6.920;2022-09-20T16:12:56;4.33;;;1.37;;
4122;SDS011;2075;51.062;6.920;2022-09-20T16:15:41;1.83;;;1.13;;
4122;SDS011;2075;51.062;6.920;2022-09-20T16:18:26;4.73;;;1.53;;
4122;SDS011;2075;51.062;6.920;2022-09-20T16:21:29;1.40;;;1.30;;
4122;SDS011;2075;51.062;6.920;2022-09-20T16:24:15;5.80;;;1.53;;
4122;SDS011;2075;51.062;6.920;2022-09-20T16:27:00;3.07;;;1.90;;
4122;SDS011;2075;51.062;6.920;2022-09-20T16:29:47;2.63;;;1.30;;
4122;SDS011;2075;51.062;6.920;2022-09-20T16:32:33;1.40;;;1.30;;
4122;SDS011;2075;51.062;6.920;2022-09-20T16:35:18;2.23;;;1.50;;
4122;SDS011;2075;51.062;6.920;2022-09-20T16:38:03;4.43;;;1.27;;
4122;SDS011;2075;51.062;6.920;2022-09-20T16:40:48;2.60;;;1.87;;
4122;SDS011;2075;51.062;6.920;2022-09-20T16:43:34;5.50;;;1.60;;
4122;SDS011;2075;51.062;6.920;2022-09-20T16:46:21;2.03;;;1.30;;
4122;SDS011;2075;51.062;6.920;2022-09-20T16:49:08;4.43;;;1.50;;
4122;SDS011;2075;51.062;6.920;2022-09-20T16:51:54;3.63;;;1.30;;
4122;SDS011;2075;51.062;6.920;2022-09-20T16:54:39;2.77;;;1.50;;
4122;SDS011;2075;51.062;6.920;2022-09-20T16:57:24;5.67;;;4.07;;
4122;SDS011;2075;51.062;6.920;2022-09-20T17:00:10;2.70;;;2.40;;
4122;SDS011;2075;51.062;6.920;2022-09-20T17:02:57;13.30;;;2.50;;
4122;SDS011;2075;51.062;6.920;2022-09-20T17:05:42;14.93;;;6.47;;
4122;SDS011;2075;51.062;6.920;2022-09-20T17:08:27;6.73;;;4.00;;
4122;SDS011;2075;51.062;6.920;2022-09-20T17:11:13;5.97;;;4.10;;
4122;SDS011;2075;51.062;6.920;2022-09-20T17:13:59;8.40;;;3.60;;
4122;SDS011;2075;51.062;6.920;2022-09-20T17:16:44;6.27;;;1.90;;
4122;SDS011;2075;51.062;6.920;2022-09-20T17:19:32;6.10;;;3.10;;
4122;SDS011;2075;51.062;6.920;2022-09-20T17:22:17;7.80;;;3.90;;
4122;SDS011;2075;51.062;6.920;2022-09-20T17:25:02;4.43;;;2.60;;
4122;SDS011;2075;51.062;6.920;2022-09-20T17:27:48;7.57;;;2.60;;
4122;SDS011;2075;51.062;6.920;2022-09-20T17:30:34;3.47;;;2.07;;
4122;SDS011;2075;51.062;6.920;2022-09-20T17:33:19;2.50;;;1.50;;
4122;SDS011;2075;51.062;6.920;2022-09-20T17:36:06;9.73;;;1.93;;
4122;SDS011;2075;51.062;6.920;2022-09-20T17:38:53;6.33;;;1.80;;
4122;SDS011;2075;51.062;6.920;2022-09-20T17:41:39;9.10;;;2.47;;
4122;SDS011;2075;51.062;6.920;2022-09-20T17:44:24;3.43;;;2.07;;
4122;SDS011;2075;51.062;6.920;2022-09-20T17:47:09;7.63;;;3.30;;
4122;SDS011;2075;51.062;6.920;2022-09-20T17:49:54;4.73;;;2.07;;
4122;SDS011;2075;51.062;6.920;2022-09-20T17:52:40;6.40;;;1.87;;
4122;SDS011;2075;51.062;6.920;2022-09-20T17:55:26;2.27;;;2.17;;
4122;SDS011;2075;51.062;6.920;2022-09-20T17:58:11;3.60;;;1.90;;
4122;SDS011;2075;51.062;6.920;2022-09-20T18:01:03;7.33;;;2.00;;
4122;SDS011;2075;51.062;6.920;2022-09-20T18:03:49;6.97;;;2.07;;
4122;SDS011;2075;51.062;6.920;2022-09-20T18:06:36;4.90;;;4.40;;
4122;SDS011;2075;51.062;6.920;2022-09-20T18:09:23;7.73;;;5.97;;
4122;SDS011;2075;51.062;6.920;2022-09-20T18:12:09;4.27;;;3.10;;